Terminal Aerodrome Forecast
Issued by NWS Grand Junction, CO

Home | Current Version | Previous Version | Text Only | Print | Product List | Glossary On
Versions: 1 2 3 4 5 6 7 8 9 10 11 12 13 14 15 16 17 18
000
FTUS45 KGJT 202341
TAFGJT
TAF
KGJT 202341Z 2100/2124 16018G28KT P6SM VCTS FEW110CB BKN140
      TEMPO 2100/2102 VRB06KT -TSRA BKN070CB
     FM210200 15009KT P6SM VCTS BKN100CB
     FM210500 11010KT P6SM VCSH OVC100
     FM210900 14004KT P6SM SCT045 BKN090
     FM211600 VRB03KT P6SM SCT150=

USA.gov is the U.S. government's official web portal to all federal, state and local government web resources and services.